Home   Weather   France   Blois   Past weeks
Flag for France

Past Weather in Blois, Loir-et-Cher, France — Yesterday and Last 2 Weeks

Currently: 30 °F. Clear. (Weather station: Romorantin, France). See more current weather

Past Weather in Blois — Graph

°F

Blois Temperature Yesterday

Maximum temperature yesterday: 48 °F (at 2:00 pm)
Minimum temperature yesterday: 34 °F (at 6:30 am)
Average temperature yesterday: 40 °F

High & Low Weather Summary for the Past Weeks

 TemperatureHumidityPressure
High52 °F (Feb 4, 12:30 pm)100% (Jan 25, 9:30 pm)30.74 "Hg (Jan 25, 9:30 pm)
Low25 °F (Jan 29, 8:30 pm)50% (Feb 7, 2:30 pm)30.15 "Hg (Jan 27, 6:30 am)
Average40 °F81%30.47 "Hg
* Reported Jan 23 9:00 pm — Feb 7 9:00 pm, Blois. Weather by CustomWeather, © 2023

Note: Actual official high and low records may vary slightly from our data, if they occured in-between our weather recording intervals... More about our weather records

Blois Weather History for the Previous 24 Hours

Scroll right to see more
 ConditionsComfort  
Time TempWeatherWind HumidityBarometerVisibility
9:00 pm
Tue, Feb 7
32 °FClear.No wind80%30.57 "Hg10 mi
8:30 pm34 °FClear.2 mph81%30.57 "Hg10 mi
8:00 pm39 °FPassing clouds.3 mph65%30.57 "HgN/A
7:00 pm41 °FPassing clouds.6 mph61%30.57 "HgN/A
6:30 pm43 °FPassing clouds.5 mph57%30.57 "HgN/A
6:00 pm45 °FPassing clouds.5 mph53%30.54 "HgN/A
5:30 pm46 °FPassing clouds.7 mph53%30.54 "HgN/A
5:00 pm46 °FPassing clouds.8 mph53%30.54 "HgN/A
4:30 pm48 °FPassing clouds.8 mph50%30.54 "HgN/A
4:00 pm48 °FPassing clouds.7 mph50%30.54 "HgN/A
3:00 pm46 °FPassing clouds.8 mph53%30.51 "HgN/A
2:30 pm46 °FSunny.8 mph50%30.51 "Hg10 mi
2:00 pm45 °FPassing clouds.9 mph53%30.51 "HgN/A
1:00 pm43 °FPassing clouds.8 mph57%30.54 "HgN/A
12:30 pm41 °FPassing clouds.12 mph61%30.54 "HgN/A
12:00 pm41 °FSunny.9 mph61%30.54 "Hg10 mi
11:30 am39 °FPassing clouds.10 mph65%30.54 "HgN/A
11:00 am37 °FSunny.13 mph70%30.51 "Hg10 mi
10:30 am36 °FSunny.12 mph75%30.51 "Hg10 mi
10:00 am34 °FPassing clouds.13 mph81%30.51 "HgN/A
9:30 am34 °FPassing clouds.10 mph81%30.51 "HgN/A
9:00 am32 °FPassing clouds.9 mph87%30.51 "HgN/A
8:30 am32 °FPassing clouds.9 mph87%30.48 "HgN/A
8:00 am30 °FPassing clouds.7 mph93%30.48 "HgN/A
7:00 am32 °FPassing clouds.6 mph87%30.48 "HgN/A
6:30 am32 °FPassing clouds.6 mph87%30.48 "HgN/A
6:00 am30 °FPassing clouds.5 mph93%30.48 "HgN/A
5:30 am32 °FPassing clouds.5 mph87%30.48 "HgN/A
5:00 am32 °FPassing clouds.5 mph87%30.48 "HgN/A
4:30 am32 °FPassing clouds.5 mph87%30.45 "HgN/A
4:00 am32 °FPassing clouds.3 mph93%30.48 "HgN/A
3:30 am32 °FClear.3 mph93%30.48 "Hg10 mi
3:00 am30 °FClear.2 mph93%30.48 "Hg10 mi
2:30 am30 °FClear.2 mph93%30.48 "Hg10 mi
2:00 am32 °FClear.2 mph87%30.51 "Hg10 mi
12:30 am34 °FClear.2 mph87%30.51 "Hg10 mi
12:00 am36 °FClear.3 mph81%30.51 "Hg10 mi
11:00 pm
Mon, Feb 6
34 °FClear.2 mph87%30.54 "Hg10 mi
10:30 pm36 °FClear.2 mph81%30.54 "Hg10 mi
10:00 pm37 °FClear.1 mph81%30.54 "Hg10 mi
Weather by CustomWeather, © 2023

See weather overview